Latest Weather Observations for Hobart Airport

IDT60801

Issued at 5:31 pm EST Sunday 29 May 2016 (issued every 30 minutes, with the page automatically refreshed every 10 minutes)

About weather observations | Map of weather stations | Latest weather observations for TAS | Other Formats
Station Details ID: 094008 Name: HOBART AIRPORT Lat: -42.83 Lon: 147.50 Height: 4.0 m
Data from the previous 72 hours. | See also: Recent months at Hobart Airport
Date/Time
EST
Temp
°C
App
Temp
°C
Dew
Point
Rel
Hum
%
Delta-T
°C
Wind Press
QNH
hPa
Press
MSL
hPa
Rain
since 9 am
mm
Dir
 
Spd
km/h
Gust
km/h
Spd
kts
Gust
kts
29/05:00pm 10.1 6.4 7.8 86 1.1 SSW 17 20 9 11 1018.5 1018.5 3.8
29/04:30pm 10.6 5.8 7.2 79 1.6 SW 22 28 12 15 1018.1 1018.1 3.8
29/04:00pm 11.3 8.2 7.3 76 1.9 SSW 13 17 7 9 1017.7 1017.7 3.8
29/03:30pm 10.9 8.8 8.2 83 1.3 SSW 9 11 5 6 1017.5 1017.5 3.8
29/03:00pm 10.7 8.3 8.5 86 1.1 SSW 11 13 6 7 1017.1 1017.1 3.8
29/02:30pm 10.9 7.8 8.9 87 1.0 SSW 15 20 8 11 1016.8 1016.8 3.8
29/02:00pm 11.1 6.2 8.5 84 1.3 SSW 24 33 13 18 1016.6 1016.6 3.2
29/01:30pm 12.0 9.1 8.1 77 1.9 SSW 13 19 7 10 1016.3 1016.3 3.2
29/01:00pm 11.4 8.5 8.3 81 1.5 SSW 13 19 7 10 1016.1 1016.1 3.2
29/12:30pm 10.7 7.9 8.5 86 1.1 SW 13 19 7 10 1015.9 1015.9 3.2
29/12:00pm 10.8 7.9 8.3 84 1.2 SW 13 17 7 9 1016.0 1016.0 3.0
29/11:30am 10.4 7.5 8.1 86 1.1 WSW 13 17 7 9 1016.0 1016.0 3.0
29/11:10am 9.9 7.5 8.5 91 0.7 WSW 11 15 6 8 1016.1 1016.1 3.0
29/11:00am 9.6 7.1 8.4 92 0.6 WSW 11 15 6 8 1016.1 1016.1 2.8
29/10:40am 9.2 7.0 7.7 90 0.7 WNW 9 11 5 6 1016.1 1016.1 1.8
29/10:30am 9.1 7.2 7.6 90 0.7 WNW 7 9 4 5 1016.0 1016.0 1.4
29/10:00am 9.2 6.9 7.5 89 0.8 W 9 13 5 7 1015.7 1015.7 0.4
29/09:30am 9.1 6.4 7.4 89 0.8 WNW 11 15 6 8 1015.2 1015.2 0.2
29/09:00am 9.7 7.0 7.4 85 1.1 SW 11 17 6 9 1014.8 1014.8 2.2
29/08:30am 9.4 6.3 7.1 85 1.1 SW 13 17 7 9 1014.4 1014.4 1.4
29/08:00am 9.3 6.1 7.0 85 1.1 SW 13 17 7 9 1014.0 1014.0 1.4
29/07:30am 9.3 4.5 7.2 87 1.0 SW 22 30 12 16 1013.6 1013.6 0.8
29/07:00am 9.7 5.7 6.5 80 1.5 SW 17 26 9 14 1013.2 1013.2 0.2
29/06:54am 9.9 5.4 6.2 78 1.7 SW 19 28 10 15 1013.1 1013.1 0.2
29/06:30am 9.9 5.8 6.0 77 1.8 WSW 17 24 9 13 1012.8 1012.8 0.2
29/06:00am 10.0 5.7 5.4 73 2.1 W 17 30 9 16 1012.3 1012.3 0.0
29/05:30am 8.4 5.1 6.2 86 1.0 WNW 13 17 7 9 1012.1 1012.1 0.0
29/05:00am 8.5 5.2 6.3 86 1.0 WNW 13 15 7 8 1011.8 1011.8 0.0
29/04:30am 8.8 6.2 6.2 84 1.2 W 9 11 5 6 1011.7 1011.7 0.0
29/04:00am 9.4 7.0 5.2 75 1.9 NW 7 11 4 6 1011.4 1011.4 0.0
29/03:30am 9.1 6.4 5.6 79 1.6 NW 9 13 5 7 1011.4 1011.4 0.0
29/03:00am 8.9 5.5 5.8 81 1.4 NW 13 17 7 9 1011.1 1011.1 0.0
29/02:30am 8.7 5.3 5.8 82 1.3 WNW 13 17 7 9 1011.0 1011.0 0.0
29/02:00am 9.1 5.6 5.6 79 1.6 WNW 13 17 7 9 1011.0 1011.0 0.0
29/01:30am 8.8 6.1 5.7 81 1.4 WNW 9 13 5 7 1010.8 1010.8 0.0
29/01:00am 8.5 5.5 6.1 85 1.1 NW 11 15 6 8 1010.6 1010.6 0.0
29/12:30am 8.6 6.0 6.0 84 1.2 WNW 9 13 5 7 1010.6 1010.6 0.0
29/12:00am 8.6 5.2 6.0 84 1.2 NW 13 17 7 9 1010.5 1010.5 0.0
 
Date/Time
EST
Temp
°C
App
Temp
°C
Dew
Point
Rel
Hum
%
Delta-T
°C
Wind Press
QNH
hPa
Press
MSL
hPa
Rain
since 9 am
mm
Dir
 
Spd
km/h
Gust
km/h
Spd
kts
Gust
kts
28/11:30pm 8.8 5.0 5.7 81 1.4 NW 15 19 8 10 1010.5 1010.5 0.0
28/11:00pm 8.1 5.1 5.9 86 1.0 NNW 11 15 6 8 1010.4 1010.4 0.0
28/10:30pm 7.8 5.0 5.1 83 1.2 WNW 9 13 5 7 1010.4 1010.4 0.0
28/10:00pm 7.4 3.9 5.4 87 0.9 NW 13 15 7 8 1010.3 1010.3 0.0
28/09:30pm 7.3 4.4 4.6 83 1.2 WNW 9 11 5 6 1010.3 1010.3 0.0
28/09:00pm 6.7 5.1 4.6 86 0.9 NW 2 6 1 3 1010.1 1010.1 0.0
28/08:30pm 6.4 3.9 4.6 88 0.8 N 7 9 4 5 1009.7 1009.7 0.0
28/08:00pm 5.3 3.9 3.6 89 0.7 CALM 0 0 0 0 1009.8 1009.8 0.0
28/07:30pm 6.0 4.8 4.4 89 0.7 CALM 0 7 0 4 1009.6 1009.6 0.0
28/07:00pm 6.4 5.2 4.6 88 0.8 CALM 0 0 0 0 1009.4 1009.4 0.0
28/06:30pm 5.2 3.5 3.8 91 0.6 N 2 7 1 4 1009.1 1009.1 0.0
28/06:00pm 6.4 5.3 5.0 91 0.6 CALM 0 0 0 0 1008.7 1008.7 0.0
28/05:30pm 6.7 5.6 4.9 88 0.8 CALM 0 0 0 0 1008.5 1008.5 0.0
28/05:00pm 9.1 8.0 4.9 75 1.9 CALM 0 0 0 0 1008.1 1008.1 0.0
28/04:30pm 9.0 8.0 5.5 79 1.6 CALM 0 0 0 0 1007.8 1007.8 0.0
28/04:00pm 10.2 8.7 5.1 70 2.3 SW 2 7 1 4 1007.5 1007.5 0.0
28/03:30pm 10.6 9.6 5.6 71 2.3 CALM 0 0 0 0 1007.3 1007.3 0.0
28/03:00pm 11.3 10.2 5.0 65 2.9 CALM 0 4 0 2 1007.1 1007.1 0.0
28/02:30pm 12.0 8.9 3.7 57 3.7 N 9 11 5 6 1006.9 1006.9 0.0
28/02:00pm 12.4 8.9 3.4 54 4.0 NE 11 13 6 7 1006.8 1006.8 0.0
28/01:30pm 12.9 11.1 3.3 52 4.3 ESE 2 11 1 6 1006.8 1006.8 0.0
28/01:00pm 12.6 8.7 3.4 53 4.1 N 13 15 7 8 1006.9 1006.9 0.0
28/12:30pm 12.2 8.3 3.2 54 4.0 NNW 13 15 7 8 1007.1 1007.1 0.0
28/12:00pm 11.9 7.8 4.2 59 3.5 NW 15 20 8 11 1007.3 1007.3 0.0
28/11:30am 11.8 7.3 4.0 59 3.5 NW 17 22 9 12 1007.6 1007.6 0.0
28/11:00am 11.0 6.5 4.1 62 3.1 NW 17 24 9 13 1007.8 1007.8 0.0
28/10:30am 10.1 5.5 3.7 64 2.8 NNW 17 22 9 12 1007.8 1007.8 0.0
28/10:00am 9.5 4.9 3.8 67 2.5 NW 17 26 9 14 1007.8 1007.8 0.0
28/09:30am 8.5 3.3 3.4 70 2.2 NW 20 26 11 14 1007.7 1007.7 0.0
28/09:00am 7.8 3.1 3.1 72 2.0 NW 17 20 9 11 1007.9 1007.9 0.0
28/08:30am 7.1 2.4 3.1 76 1.7 NW 17 24 9 13 1008.0 1008.0 0.0
28/08:00am 6.4 2.3 2.5 76 1.6 NW 13 17 7 9 1008.1 1008.1 0.0
28/07:30am 6.5 2.8 2.6 76 1.6 NW 11 15 6 8 1008.0 1008.0 0.0
28/07:00am 6.3 2.7 2.7 78 1.5 NNW 11 17 6 9 1007.8 1007.8 0.0
28/06:30am 6.0 1.3 2.9 80 1.3 NW 17 24 9 13 1007.7 1007.7 0.0
28/06:00am 6.1 1.8 3.0 80 1.3 NW 15 22 8 12 1007.5 1007.5 0.0
28/05:30am 6.3 1.2 2.9 79 1.4 NW 19 24 10 13 1007.4 1007.4 0.0
28/05:00am 6.2 1.9 3.1 80 1.3 NW 15 22 8 12 1007.5 1007.5 0.0
28/04:30am 6.7 2.0 2.9 77 1.6 NW 17 22 9 12 1007.4 1007.4 0.0
28/04:00am 6.5 1.8 3.4 80 1.3 NW 17 19 9 10 1007.2 1007.2 0.0
28/03:30am 6.5 1.8 3.4 80 1.3 NW 17 19 9 10 1007.2 1007.2 0.0
28/03:00am 6.3 2.1 3.7 83 1.1 NW 15 19 8 10 1007.3 1007.3 0.0
28/02:30am 6.8 2.3 4.0 82 1.2 NW 17 19 9 10 1007.4 1007.4 0.0
28/02:00am 6.7 3.0 4.4 85 1.0 NW 13 15 7 8 1007.4 1007.4 0.0
28/01:30am 6.8 3.1 4.7 86 0.9 NW 13 17 7 9 1007.4 1007.4 0.0
28/01:00am 6.8 3.1 4.7 86 0.9 WNW 13 15 7 8 1007.4 1007.4 0.0
28/12:30am 7.4 3.5 5.4 87 0.9 NW 15 19 8 10 1007.5 1007.5 0.0
28/12:00am 7.5 4.0 5.3 86 1.0 NW 13 15 7 8 1007.6 1007.6 0.0
 
Date/Time
EST
Temp
°C
App
Temp
°C
Dew
Point
Rel
Hum
%
Delta-T
°C
Wind Press
QNH
hPa
Press
MSL
hPa
Rain
since 9 am
mm
Dir
 
Spd
km/h
Gust
km/h
Spd
kts
Gust
kts
27/11:30pm 7.9 4.9 6.1 88 0.8 NW 11 13 6 7 1007.6 1007.6 0.0
27/11:00pm 8.5 5.6 6.3 86 1.0 NW 11 15 6 8 1007.7 1007.7 0.0
27/10:30pm 8.9 5.4 5.6 80 1.5 NW 13 17 7 9 1007.7 1007.7 0.0
27/10:00pm 9.0 6.3 5.5 79 1.6 NW 9 15 5 8 1007.9 1007.9 0.0
27/09:30pm 10.1 6.5 2.9 61 3.1 SSW 11 15 6 8 1007.7 1007.7 0.0
27/09:00pm 10.3 6.0 3.5 62 3.0 SW 15 19 8 10 1007.7 1007.7 0.0
27/08:30pm 10.3 7.0 4.3 66 2.7 SW 11 15 6 8 1007.6 1007.6 0.0
27/08:00pm 10.0 7.1 4.9 70 2.3 WSW 9 13 5 7 1007.5 1007.5 0.0
27/07:30pm 10.3 7.0 4.8 69 2.5 SSW 11 13 6 7 1007.3 1007.3 0.0
27/07:00pm 10.4 6.7 4.4 66 2.7 SSW 13 17 7 9 1007.0 1007.0 0.0
27/06:30pm 10.6 6.5 4.1 64 2.9 SSW 15 22 8 12 1006.8 1006.8 0.0
27/06:00pm 10.6 6.9 4.4 65 2.8 SSW 13 20 7 11 1006.6 1006.6 0.0
27/05:30pm 10.6 6.9 4.6 66 2.7 SSW 13 17 7 9 1006.3 1006.3 0.0
27/05:00pm 11.1 6.7 4.5 64 3.0 SSW 17 22 9 12 1006.1 1006.1 0.0
27/04:30pm 11.2 6.3 5.1 66 2.8 SSW 20 28 11 15 1005.9 1005.9 0.0
27/04:00pm 11.3 7.0 5.2 66 2.8 S 17 24 9 13 1005.6 1005.6 0.0
27/03:30pm 11.6 7.3 5.1 64 3.0 S 17 28 9 15 1005.3 1005.3 0.0
27/03:00pm 11.4 6.8 5.6 67 2.7 SSW 19 26 10 14 1005.0 1005.0 0.0
27/02:30pm 11.2 6.6 5.8 69 2.5 SSW 19 26 10 14 1004.7 1004.7 0.0
27/02:00pm 11.1 6.5 5.5 68 2.6 SSW 19 26 10 14 1004.7 1004.7 0.0
27/01:30pm 11.4 6.9 6.3 71 2.4 SSW 19 26 10 14 1004.8 1004.8 0.0
27/01:00pm 11.4 6.7 6.1 70 2.5 SSW 20 28 11 15 1004.7 1004.7 0.0
27/12:30pm 11.2 6.7 6.1 71 2.4 SSW 19 30 10 16 1004.7 1004.7 0.0
27/12:00pm 11.2 6.7 6.1 71 2.4 SW 19 28 10 15 1004.8 1004.8 0.0
27/11:30am 11.1 5.3 6.4 73 2.2 SW 26 35 14 19 1004.8 1004.8 0.0
27/11:00am 11.1 6.1 6.4 73 2.2 SW 22 32 12 17 1005.0 1005.0 0.0
27/10:30am 10.9 6.2 6.2 73 2.2 SSW 20 30 11 16 1004.9 1004.9 0.0
27/10:00am 10.8 6.3 6.3 74 2.1 SW 19 24 10 13 1004.9 1004.9 0.0
27/09:30am 10.5 6.0 6.0 74 2.1 SSW 19 28 10 15 1004.6 1004.6 0.0
27/09:00am 10.3 6.1 5.5 72 2.2 SSW 17 24 9 13 1004.4 1004.4 0.2
27/08:30am 10.1 5.7 5.0 70 2.3 SW 17 24 9 13 1004.3 1004.3 0.2
27/08:00am 9.9 5.6 5.3 73 2.1 SW 17 22 9 12 1004.1 1004.1 0.2
27/07:30am 9.9 5.9 4.8 70 2.3 SSW 15 20 8 11 1004.0 1004.0 0.2
27/07:00am 9.9 5.5 4.8 70 2.3 SW 17 24 9 13 1003.7 1003.7 0.2
27/06:30am 10.1 5.3 4.5 68 2.5 SW 19 26 10 14 1003.5 1003.5 0.2
27/06:00am 10.2 5.4 4.4 67 2.6 SW 19 28 10 15 1003.4 1003.4 0.2
27/05:30am 10.2 5.3 4.1 66 2.7 SW 19 28 10 15 1003.4 1003.4 0.2
27/05:00am 10.3 5.2 4.0 65 2.8 SW 20 28 11 15 1003.2 1003.2 0.2
27/04:30am 10.2 5.1 4.1 66 2.7 SW 20 28 11 15 1003.1 1003.1 0.2
27/04:00am 10.3 5.4 4.0 65 2.8 SW 19 22 10 12 1002.9 1002.9 0.2
27/03:30am 10.4 5.9 4.1 65 2.8 SW 17 22 9 12 1002.8 1002.8 0.2
27/03:00am 10.5 5.6 4.3 65 2.8 SW 19 24 10 13 1002.9 1002.9 0.2
27/02:30am 10.5 6.4 4.3 65 2.8 SW 15 22 8 12 1003.0 1003.0 0.2
27/02:00am 10.3 5.5 4.5 67 2.6 SW 19 26 10 14 1002.9 1002.9 0.2
27/01:30am 10.3 5.9 4.5 67 2.6 SW 17 22 9 12 1002.8 1002.8 0.2
27/01:00am 10.4 6.3 4.1 65 2.8 SW 15 19 8 10 1002.8 1002.8 0.2
27/12:30am 10.5 6.0 4.3 65 2.8 SW 17 24 9 13 1002.8 1002.8 0.2
27/12:00am 10.5 6.4 4.5 66 2.7 SW 15 24 8 13 1002.9 1002.9 0.2
 
Date/Time
EST
Temp
°C
App
Temp
°C
Dew
Point
Rel
Hum
%
Delta-T
°C
Wind Press
QNH
hPa
Press
MSL
hPa
Rain
since 9 am
mm
Dir
 
Spd
km/h
Gust
km/h
Spd
kts
Gust
kts
26/11:30pm 10.5 6.1 4.5 66 2.7 SW 17 26 9 14 1003.0 1003.0 0.2
26/11:00pm 10.6 6.5 4.1 64 2.9 SW 15 20 8 11 1003.0 1003.0 0.2
26/10:30pm 10.5 6.1 4.5 66 2.7 SW 17 20 9 11 1003.1 1003.1 0.2
26/10:00pm 10.7 6.3 4.5 65 2.8 SSW 17 24 9 13 1003.1 1003.1 0.2
26/09:30pm 10.9 6.5 4.5 64 2.9 SW 17 22 9 12 1003.0 1003.0 0.2
26/09:00pm 10.9 6.5 4.7 65 2.8 SW 17 22 9 12 1003.0 1003.0 0.2
26/08:30pm 10.9 7.0 5.3 68 2.6 SSW 15 19 8 10 1002.9 1002.9 0.2
26/08:00pm 10.9 6.6 5.3 68 2.6 SSW 17 20 9 11 1002.7 1002.7 0.2
26/07:30pm 11.0 7.4 4.9 66 2.8 SW 13 17 7 9 1002.9 1002.9 0.2
26/07:00pm 10.9 7.9 6.0 72 2.3 SW 11 15 6 8 1002.7 1002.7 0.2
26/06:30pm 11.0 7.6 5.9 71 2.4 SSW 13 17 7 9 1002.5 1002.5 0.2
26/06:00pm 11.1 6.9 5.5 68 2.6 SSW 17 28 9 15 1002.3 1002.3 0.2

Other Formats:

Comma delimited format used in spreadsheet applications
http://www.bom.gov.au/fwo/IDT60801/IDT60801.94975.axf

JavaScript Object Notation format (JSON) in row-major order
http://www.bom.gov.au/fwo/IDT60801/IDT60801.94975.json